Pine City, MN

10:57 PM CST on January 18, 2017 (GMT -0600)
Rush City Regional | | Change Station

Elev 925 ft 45.70 °N, 92.95 °W | Updated 20 minutes ago

Mostly Cloudy
Mostly Cloudy
30 °F
Feels Like 25 °F
N
5
Wind Variable Wind from SSE

Today
High -- | Low -- °F
--% Chance of Precip.
Yesterday
High -- | Low -- °F
Precip. -- in
Pressure 29.83 in
Visibility 4.0 miles
Clouds Clear
Windchill 25 °F
Dew Point 28 °F
Humidity 93%
Rainfall 0.00 in
Snow Depth Not available.
7:47 AM 4:58 PM
Waning Gibbous, 57% visible
METAR KROS 190437Z AUTO 16004KT 4SM BR CLR M01/M02 A2983 RMK AO2
Pressure 29.83 in
Visibility 4.0 miles
Clouds Clear
Windchill 25 °F
Dew Point 28 °F
Humidity 93%
Rainfall 0.00 in
Snow Depth Not available.
7:47 AM 4:58 PM
Waning Gibbous, 57% visible
METAR KROS 190437Z AUTO 16004KT 4SM BR CLR M01/M02 A2983 RMK AO2

Get Your Daily Forecast Email!

Thanks for signing up!

Be on the lookout for a verification email in your inbox.

You'll start receiving the daily forecast at 8 AM.

×

10-Day Weather Forecast

Almanac

Astronomy

Jan. 18, 2017 Rise Set
Actual Time
Civil Twilight
Nautical Twilight
Astronomical Twilight
Moon
Length of Visible Light
Length of Day
Tomorrow will be .
, % of the Moon is Illuminated

Today's Extremes

State Highs State Lows

Community

WunderPhotos

Upload Photos

1,962,540 photos uploaded!

WunderBlog® & News

Nearby

Air Quality

  Air Quality AQ Index Pollutant
Not available.

Snow Depth

Station Depth Elevation

Earthquake Activity

City Distance Mag. Time & Date
Minimum magnitude displayed is 2.5.

Coastal Water Temperatures

Place Temperature

Stations

Nearby Weather Stations

Station Location Temp. Windchill Dew Point Humidity Wind Precip. Elev Updated Type
                   

Watches & Warnings

There are currently no watches in effect.